| time (UTC) | temp C | wind direction | speed KPH | gust KPH | rain 1hr cm | rain 24hr cm | rain mn cm | humidity % | barometer mb |
| 20260906140054 | 23 | 31 | 3.2 | 0.0 | 0.00 | 0.00 | 0.00 | 85 | 1016.2 |
| 20260906130018 | 22 | 12 | 3.2 | 0.0 | 0.00 | 0.00 | 0.00 | 88 | 1015.9 |
| 20260906120020 | 23 | 15 | 1.6 | 0.0 | 0.00 | 0.00 | 0.00 | 89 | 1015.3 |
| 20260906110019 | 24 | 26 | 1.6 | 0.0 | 0.00 | 0.00 | 0.00 | 86 | 1014.9 |
| 20260906100019 | 25 | 31 | 1.6 | 0.0 | 0.00 | 0.00 | 0.00 | 83 | 1014.6 |
| 20260906090020 | 26 | 43 | 1.6 | 0.0 | 0.00 | 0.00 | 0.00 | 84 | 1014.1 |
| 20260906080020 | 26 | 33 | 1.6 | 0.0 | 0.00 | 0.00 | 0.00 | 82 | 1014.0 |
| 20260906070054 | 27 | 67 | 1.6 | 0.0 | 0.00 | 0.00 | 0.00 | 77 | 1014.1 |
| 20260906060019 | 27 | 67 | 0.0 | 0.0 | 0.00 | 0.00 | 0.00 | 77 | 1014.2 |
| 20260906050159 | 27 | 166 | 0.0 | 0.0 | 0.00 | 0.00 | 0.00 | 76 | 1013.9 |
| 20260906040020 | 28 | 13 | 0.0 | 0.0 | 0.00 | 0.00 | 0.00 | 73 | 1013.5 |
| 20260906030050 | 29 | 348 | 0.0 | 0.0 | 0.00 | 0.00 | 0.00 | 68 | 1012.9 |
| 20260906020050 | 30 | 22 | 1.6 | 0.0 | 0.00 | 0.00 | 0.00 | 59 | 1012.2 |
| 20260906010019 | 32 | 9 | 1.6 | 0.0 | 0.00 | 0.00 | 0.00 | 51 | 1011.7 |
| 20260906000019 | 34 | 347 | 3.2 | 0.0 | 0.00 | 0.00 | 0.00 | 45 | 1011.8 |
| 20260905230054 | 35 | 332 | 3.2 | 0.0 | 0.00 | 0.00 | 0.00 | 42 | 1011.8 |
| 20260905220019 | 35 | 331 | 3.2 | 16.1 | 0.00 | 0.00 | 0.00 | 42 | 1011.8 |
| 20260905210019 | 35 | 262 | 3.2 | 30.6 | 0.00 | 0.00 | 0.00 | 42 | 1012.2 |
| 20260905200052 | 37 | 344 | 3.2 | 0.0 | 0.00 | 0.00 | 0.00 | 35 | 1012.5 |
| 20260905190050 | 37 | 325 | 4.8 | 16.1 | 0.00 | 0.00 | 0.00 | 37 | 1013.1 |
| 20260905180019 | 36 | 333 | 3.2 | 0.0 | 0.00 | 0.00 | 0.00 | 44 | 1013.7 |
| 20260905170019 | 33 | 334 | 3.2 | 0.0 | 0.00 | 0.00 | 0.00 | 50 | 1014.4 |
| 20260905160020 | 31 | 322 | 3.2 | 0.0 | 0.00 | 0.00 | 0.00 | 55 | 1014.6 |
| 20260905150019 | 29 | 311 | 1.6 | 0.0 | 0.00 | 0.00 | 0.00 | 62 | 1014.6 |